sensor_id;sensor_type;location;lat;lon;timestamp;temperature;humidity
64226;DHT22;50545;56.064;26.178;2022-08-07T00:00:24;11.40;99.90
64226;DHT22;50545;56.064;26.178;2022-08-07T00:02:52;11.40;99.90
64226;DHT22;50545;56.064;26.178;2022-08-07T00:05:23;11.40;99.90
64226;DHT22;50545;56.064;26.178;2022-08-07T00:07:52;11.30;99.90
64226;DHT22;50545;56.064;26.178;2022-08-07T00:10:29;11.30;99.90
64226;DHT22;50545;56.064;26.178;2022-08-07T00:12:59;11.20;99.90
64226;DHT22;50545;56.064;26.178;2022-08-07T00:15:36;11.20;99.90
64226;DHT22;50545;56.064;26.178;2022-08-07T00:18:19;11.20;99.90
64226;DHT22;50545;56.064;26.178;2022-08-07T00:20:56;11.20;99.90
64226;DHT22;50545;56.064;26.178;2022-08-07T00:23:29;11.20;99.90
64226;DHT22;50545;56.064;26.178;2022-08-07T00:25:59;11.20;99.90
64226;DHT22;50545;56.064;26.178;2022-08-07T00:28:47;11.10;99.90
64226;DHT22;50545;56.064;26.178;2022-08-07T00:31:22;11.20;99.90
64226;DHT22;50545;56.064;26.178;2022-08-07T00:34:08;11.10;99.90
64226;DHT22;50545;56.064;26.178;2022-08-07T00:36:36;11.10;99.90
64226;DHT22;50545;56.064;26.178;2022-08-07T00:39:10;11.10;99.90
64226;DHT22;50545;56.064;26.178;2022-08-07T00:41:52;11.00;99.90
64226;DHT22;50545;56.064;26.178;2022-08-07T00:44:33;11.00;99.90
64226;DHT22;50545;56.064;26.178;2022-08-07T00:47:05;11.00;99.90
64226;DHT22;50545;56.064;26.178;2022-08-07T00:49:52;11.00;99.90
64226;DHT22;50545;56.064;26.178;2022-08-07T00:52:40;11.00;99.90
64226;DHT22;50545;56.064;26.178;2022-08-07T00:55:13;10.90;99.90
64226;DHT22;50545;56.064;26.178;2022-08-07T00:57:51;10.90;99.90
64226;DHT22;50545;56.064;26.178;2022-08-07T01:00:21;10.90;99.90
64226;DHT22;50545;56.064;26.178;2022-08-07T01:02:50;10.90;99.90
64226;DHT22;50545;56.064;26.178;2022-08-07T01:05:19;10.90;99.90
64226;DHT22;50545;56.064;26.178;2022-08-07T01:07:50;10.80;99.90
64226;DHT22;50545;56.064;26.178;2022-08-07T01:10:18;10.80;99.90
64226;DHT22;50545;56.064;26.178;2022-08-07T01:12:47;10.80;99.90
64226;DHT22;50545;56.064;26.178;2022-08-07T01:15:21;10.80;99.90
64226;DHT22;50545;56.064;26.178;2022-08-07T01:18:09;10.70;99.90
64226;DHT22;50545;56.064;26.178;2022-08-07T01:20:45;10.70;99.90
64226;DHT22;50545;56.064;26.178;2022-08-07T01:23:27;10.70;99.90
64226;DHT22;50545;56.064;26.178;2022-08-07T01:26:11;10.70;99.90
64226;DHT22;50545;56.064;26.178;2022-08-07T01:28:50;10.60;99.90
64226;DHT22;50545;56.064;26.178;2022-08-07T01:31:19;10.60;99.90
64226;DHT22;50545;56.064;26.178;2022-08-07T01:33:49;10.60;99.90
64226;DHT22;50545;56.064;26.178;2022-08-07T01:36:24;10.60;99.90
64226;DHT22;50545;56.064;26.178;2022-08-07T01:39:11;10.60;99.90
64226;DHT22;50545;56.064;26.178;2022-08-07T01:41:40;10.60;99.90
64226;DHT22;50545;56.064;26.178;2022-08-07T01:44:29;10.60;99.90
64226;DHT22;50545;56.064;26.178;2022-08-07T01:46:58;10.60;99.90
64226;DHT22;50545;56.064;26.178;2022-08-07T01:49:40;10.50;99.90
64226;DHT22;50545;56.064;26.178;2022-08-07T01:52:09;10.50;99.90
64226;DHT22;50545;56.064;26.178;2022-08-07T01:54:41;10.50;99.90
64226;DHT22;50545;56.064;26.178;2022-08-07T01:57:20;10.50;99.90
64226;DHT22;50545;56.064;26.178;2022-08-07T02:00:06;10.50;99.90
64226;DHT22;50545;56.064;26.178;2022-08-07T02:02:44;10.50;99.90
64226;DHT22;50545;56.064;26.178;2022-08-07T02:05:53;10.50;99.90
64226;DHT22;50545;56.064;26.178;2022-08-07T02:08:28;10.40;99.90
64226;DHT22;50545;56.064;26.178;2022-08-07T02:10:57;10.50;99.90
64226;DHT22;50545;56.064;26.178;2022-08-07T02:13:30;10.40;99.90
64226;DHT22;50545;56.064;26.178;2022-08-07T02:16:19;10.40;99.90
64226;DHT22;50545;56.064;26.178;2022-08-07T02:22:37;10.40;99.90
64226;DHT22;50545;56.064;26.178;2022-08-07T02:25:08;10.40;99.90
64226;DHT22;50545;56.064;26.178;2022-08-07T02:27:44;10.40;99.90
64226;DHT22;50545;56.064;26.178;2022-08-07T02:30:19;10.40;99.90
64226;DHT22;50545;56.064;26.178;2022-08-07T02:32:48;10.40;99.90
64226;DHT22;50545;56.064;26.178;2022-08-07T02:35:36;10.40;99.90
64226;DHT22;50545;56.064;26.178;2022-08-07T02:38:27;10.40;99.90
64226;DHT22;50545;56.064;26.178;2022-08-07T02:40:59;10.30;99.90
64226;DHT22;50545;56.064;26.178;2022-08-07T02:43:30;10.30;99.90
64226;DHT22;50545;56.064;26.178;2022-08-07T02:46:00;10.30;99.90
64226;DHT22;50545;56.064;26.178;2022-08-07T02:48:30;10.30;99.90
64226;DHT22;50545;56.064;26.178;2022-08-07T02:51:06;10.30;99.90
64226;DHT22;50545;56.064;26.178;2022-08-07T02:53:55;10.30;99.90
64226;DHT22;50545;56.064;26.178;2022-08-07T02:56:25;10.20;99.90
64226;DHT22;50545;56.064;26.178;2022-08-07T02:59:01;10.20;99.90
64226;DHT22;50545;56.064;26.178;2022-08-07T03:01:30;10.30;99.90
64226;DHT22;50545;56.064;26.178;2022-08-07T03:04:06;10.30;99.90
64226;DHT22;50545;56.064;26.178;2022-08-07T03:06:41;10.30;99.90
64226;DHT22;50545;56.064;26.178;2022-08-07T03:09:12;10.30;99.90
64226;DHT22;50545;56.064;26.178;2022-08-07T03:12:02;10.30;99.90
64226;DHT22;50545;56.064;26.178;2022-08-07T03:14:32;10.40;99.90
64226;DHT22;50545;56.064;26.178;2022-08-07T03:17:05;10.30;99.90
64226;DHT22;50545;56.064;26.178;2022-08-07T03:19:34;10.40;99.90
64226;DHT22;50545;56.064;26.178;2022-08-07T03:22:04;10.40;99.90
64226;DHT22;50545;56.064;26.178;2022-08-07T03:24:34;10.40;99.90
64226;DHT22;50545;56.064;26.178;2022-08-07T03:27:04;10.40;99.90
64226;DHT22;50545;56.064;26.178;2022-08-07T03:29:41;10.50;99.90
64226;DHT22;50545;56.064;26.178;2022-08-07T03:32:21;10.50;99.90
64226;DHT22;50545;56.064;26.178;2022-08-07T03:34:52;10.50;99.90
64226;DHT22;50545;56.064;26.178;2022-08-07T03:37:40;10.60;99.90
64226;DHT22;50545;56.064;26.178;2022-08-07T03:40:20;10.60;99.90
64226;DHT22;50545;56.064;26.178;2022-08-07T03:42:52;10.60;99.90
64226;DHT22;50545;56.064;26.178;2022-08-07T03:45:23;10.70;99.90
64226;DHT22;50545;56.064;26.178;2022-08-07T03:47:57;10.70;99.90
64226;DHT22;50545;56.064;26.178;2022-08-07T03:50:25;10.70;99.90
64226;DHT22;50545;56.064;26.178;2022-08-07T03:52:57;10.70;99.90
64226;DHT22;50545;56.064;26.178;2022-08-07T03:55:27;10.80;99.90
64226;DHT22;50545;56.064;26.178;2022-08-07T03:58:22;10.80;99.90
64226;DHT22;50545;56.064;26.178;2022-08-07T04:01:10;10.80;99.90
64226;DHT22;50545;56.064;26.178;2022-08-07T04:03:40;10.90;99.90
64226;DHT22;50545;56.064;26.178;2022-08-07T04:06:21;10.90;99.90
64226;DHT22;50545;56.064;26.178;2022-08-07T04:09:06;11.00;99.90
64226;DHT22;50545;56.064;26.178;2022-08-07T04:11:45;11.00;99.90
64226;DHT22;50545;56.064;26.178;2022-08-07T04:14:33;11.10;99.90
64226;DHT22;50545;56.064;26.178;2022-08-07T04:17:10;11.20;99.90
64226;DHT22;50545;56.064;26.178;2022-08-07T04:19:57;11.20;99.90
64226;DHT22;50545;56.064;26.178;2022-08-07T04:22:27;11.30;99.90
64226;DHT22;50545;56.064;26.178;2022-08-07T04:24:57;11.40;99.90
64226;DHT22;50545;56.064;26.178;2022-08-07T04:27:28;11.50;99.90
64226;DHT22;50545;56.064;26.178;2022-08-07T04:30:05;11.60;99.90
64226;DHT22;50545;56.064;26.178;2022-08-07T04:32:53;11.70;99.90
64226;DHT22;50545;56.064;26.178;2022-08-07T04:35:24;11.80;99.90
64226;DHT22;50545;56.064;26.178;2022-08-07T04:37:51;11.90;99.90
64226;DHT22;50545;56.064;26.178;2022-08-07T04:40:36;12.00;99.90
64226;DHT22;50545;56.064;26.178;2022-08-07T04:43:26;12.10;99.90
64226;DHT22;50545;56.064;26.178;2022-08-07T04:49:37;12.20;99.90
64226;DHT22;50545;56.064;26.178;2022-08-07T04:55:00;12.40;99.90
64226;DHT22;50545;56.064;26.178;2022-08-07T04:57:58;12.50;99.90
64226;DHT22;50545;56.064;26.178;2022-08-07T05:00:55;12.60;99.90
64226;DHT22;50545;56.064;26.178;2022-08-07T05:03:45;12.70;99.90
64226;DHT22;50545;56.064;26.178;2022-08-07T05:09:28;12.80;99.90
64226;DHT22;50545;56.064;26.178;2022-08-07T05:12:16;12.90;99.90
64226;DHT22;50545;56.064;26.178;2022-08-07T05:15:04;12.90;99.90
64226;DHT22;50545;56.064;26.178;2022-08-07T05:17:57;13.10;99.90
64226;DHT22;50545;56.064;26.178;2022-08-07T05:20:32;13.10;99.90
64226;DHT22;50545;56.064;26.178;2022-08-07T05:23:07;13.20;99.90
64226;DHT22;50545;56.064;26.178;2022-08-07T05:25:45;13.30;99.90
64226;DHT22;50545;56.064;26.178;2022-08-07T05:28:35;13.30;99.90
64226;DHT22;50545;56.064;26.178;2022-08-07T05:31:11;13.40;99.90
64226;DHT22;50545;56.064;26.178;2022-08-07T05:33:42;13.50;99.90
64226;DHT22;50545;56.064;26.178;2022-08-07T05:36:30;13.60;99.90
64226;DHT22;50545;56.064;26.178;2022-08-07T05:39:02;13.70;99.90
64226;DHT22;50545;56.064;26.178;2022-08-07T05:41:51;13.80;99.90
64226;DHT22;50545;56.064;26.178;2022-08-07T05:44:35;13.80;99.90
64226;DHT22;50545;56.064;26.178;2022-08-07T05:47:23;13.90;99.90
64226;DHT22;50545;56.064;26.178;2022-08-07T05:50:12;13.90;99.90
64226;DHT22;50545;56.064;26.178;2022-08-07T05:52:42;14.00;99.90
64226;DHT22;50545;56.064;26.178;2022-08-07T05:55:13;14.10;99.90
64226;DHT22;50545;56.064;26.178;2022-08-07T05:57:45;14.20;99.90
64226;DHT22;50545;56.064;26.178;2022-08-07T06:00:16;14.30;99.90
64226;DHT22;50545;56.064;26.178;2022-08-07T06:02:49;14.30;99.90
64226;DHT22;50545;56.064;26.178;2022-08-07T06:05:17;14.40;99.90
64226;DHT22;50545;56.064;26.178;2022-08-07T06:07:55;14.50;99.90
64226;DHT22;50545;56.064;26.178;2022-08-07T06:10:44;14.60;99.90
64226;DHT22;50545;56.064;26.178;2022-08-07T06:13:17;14.70;99.90
64226;DHT22;50545;56.064;26.178;2022-08-07T06:15:58;14.80;99.90
64226;DHT22;50545;56.064;26.178;2022-08-07T06:18:31;14.90;99.90
64226;DHT22;50545;56.064;26.178;2022-08-07T06:21:02;15.00;99.90
64226;DHT22;50545;56.064;26.178;2022-08-07T06:23:50;15.10;99.90
64226;DHT22;50545;56.064;26.178;2022-08-07T06:26:39;15.20;99.90
64226;DHT22;50545;56.064;26.178;2022-08-07T06:29:07;15.30;99.90
64226;DHT22;50545;56.064;26.178;2022-08-07T06:31:37;15.40;99.90
64226;DHT22;50545;56.064;26.178;2022-08-07T06:34:16;15.40;99.90
64226;DHT22;50545;56.064;26.178;2022-08-07T06:36:46;15.50;99.90
64226;DHT22;50545;56.064;26.178;2022-08-07T06:39:19;15.60;99.90
64226;DHT22;50545;56.064;26.178;2022-08-07T06:42:19;15.60;99.90
64226;DHT22;50545;56.064;26.178;2022-08-07T06:45:06;15.80;99.90
64226;DHT22;50545;56.064;26.178;2022-08-07T06:47:39;15.80;99.90
64226;DHT22;50545;56.064;26.178;2022-08-07T06:50:30;15.90;99.90
64226;DHT22;50545;56.064;26.178;2022-08-07T06:53:05;16.00;99.90
64226;DHT22;50545;56.064;26.178;2022-08-07T06:55:56;16.10;99.90
64226;DHT22;50545;56.064;26.178;2022-08-07T06:58:29;16.20;99.90
64226;DHT22;50545;56.064;26.178;2022-08-07T07:00:58;16.30;99.90
64226;DHT22;50545;56.064;26.178;2022-08-07T07:03:29;16.40;99.90
64226;DHT22;50545;56.064;26.178;2022-08-07T07:06:16;16.50;99.90
64226;DHT22;50545;56.064;26.178;2022-08-07T07:08:54;16.60;99.70
64226;DHT22;50545;56.064;26.178;2022-08-07T07:11:25;16.60;99.90
64226;DHT22;50545;56.064;26.178;2022-08-07T07:14:14;16.80;99.70
64226;DHT22;50545;56.064;26.178;2022-08-07T07:16:46;16.80;94.80
64226;DHT22;50545;56.064;26.178;2022-08-07T07:19:31;16.90;93.70
64226;DHT22;50545;56.064;26.178;2022-08-07T07:22:19;16.90;93.60
64226;DHT22;50545;56.064;26.178;2022-08-07T07:25:09;17.00;95.60
64226;DHT22;50545;56.064;26.178;2022-08-07T07:31:21;17.30;99.90
64226;DHT22;50545;56.064;26.178;2022-08-07T07:33:53;17.40;99.90
64226;DHT22;50545;56.064;26.178;2022-08-07T07:36:24;17.50;98.50
64226;DHT22;50545;56.064;26.178;2022-08-07T07:38:59;17.60;99.90
64226;DHT22;50545;56.064;26.178;2022-08-07T07:41:32;17.70;81.50
64226;DHT22;50545;56.064;26.178;2022-08-07T07:44:24;17.70;77.50
64226;DHT22;50545;56.064;26.178;2022-08-07T07:46:56;17.80;72.30
64226;DHT22;50545;56.064;26.178;2022-08-07T07:49:46;17.90;76.10
64226;DHT22;50545;56.064;26.178;2022-08-07T07:52:36;18.10;79.40
64226;DHT22;50545;56.064;26.178;2022-08-07T07:55:07;18.20;79.20
64226;DHT22;50545;56.064;26.178;2022-08-07T07:57:38;18.30;75.70
64226;DHT22;50545;56.064;26.178;2022-08-07T08:00:19;18.40;76.60
64226;DHT22;50545;56.064;26.178;2022-08-07T08:03:16;18.60;74.20
64226;DHT22;50545;56.064;26.178;2022-08-07T08:06:07;18.60;68.20
64226;DHT22;50545;56.064;26.178;2022-08-07T08:08:39;18.60;69.60
64226;DHT22;50545;56.064;26.178;2022-08-07T08:11:09;18.50;69.10
64226;DHT22;50545;56.064;26.178;2022-08-07T08:13:46;18.50;67.90
64226;DHT22;50545;56.064;26.178;2022-08-07T08:16:26;18.60;68.30
64226;DHT22;50545;56.064;26.178;2022-08-07T08:18:58;18.80;74.10
64226;DHT22;50545;56.064;26.178;2022-08-07T08:21:48;19.10;70.00
64226;DHT22;50545;56.064;26.178;2022-08-07T08:24:40;19.30;66.00
64226;DHT22;50545;56.064;26.178;2022-08-07T08:27:49;19.40;58.10
64226;DHT22;50545;56.064;26.178;2022-08-07T08:30:24;19.60;62.40
64226;DHT22;50545;56.064;26.178;2022-08-07T08:32:58;19.30;62.80
64226;DHT22;50545;56.064;26.178;2022-08-07T08:35:32;19.00;61.00
64226;DHT22;50545;56.064;26.178;2022-08-07T08:38:17;18.80;63.40
64226;DHT22;50545;56.064;26.178;2022-08-07T08:41:21;18.80;63.00
64226;DHT22;50545;56.064;26.178;2022-08-07T08:44:07;19.00;66.20
64226;DHT22;50545;56.064;26.178;2022-08-07T08:46:47;19.40;68.60
64226;DHT22;50545;56.064;26.178;2022-08-07T08:52:35;20.10;66.00
64226;DHT22;50545;56.064;26.178;2022-08-07T08:55:52;20.40;62.30
64226;DHT22;50545;56.064;26.178;2022-08-07T09:01:58;20.70;60.50
64226;DHT22;50545;56.064;26.178;2022-08-07T09:07:46;20.70;61.50
64226;DHT22;50545;56.064;26.178;2022-08-07T09:30:36;20.80;59.80
64226;DHT22;50545;56.064;26.178;2022-08-07T09:36:34;20.80;58.20
64226;DHT22;50545;56.064;26.178;2022-08-07T09:45:28;21.70;60.50
64226;DHT22;50545;56.064;26.178;2022-08-07T10:04:47;21.30;59.60
64226;DHT22;50545;56.064;26.178;2022-08-07T10:14:05;20.90;55.00
64226;DHT22;50545;56.064;26.178;2022-08-07T10:25:49;20.00;63.10
64226;DHT22;50545;56.064;26.178;2022-08-07T10:37:28;20.20;58.50
64226;DHT22;50545;56.064;26.178;2022-08-07T10:43:38;20.00;60.80
64226;DHT22;50545;56.064;26.178;2022-08-07T10:46:18;20.00;62.60
64226;DHT22;50545;56.064;26.178;2022-08-07T10:49:47;20.40;65.80
64226;DHT22;50545;56.064;26.178;2022-08-07T10:52:50;20.80;58.70
64226;DHT22;50545;56.064;26.178;2022-08-07T10:55:26;21.30;64.60
64226;DHT22;50545;56.064;26.178;2022-08-07T11:01:37;22.20;60.80
64226;DHT22;50545;56.064;26.178;2022-08-07T11:04:51;22.60;59.60
64226;DHT22;50545;56.064;26.178;2022-08-07T11:13:03;23.60;54.60
64226;DHT22;50545;56.064;26.178;2022-08-07T11:15:56;23.80;55.00
64226;DHT22;50545;56.064;26.178;2022-08-07T11:18:50;24.10;51.40
64226;DHT22;50545;56.064;26.178;2022-08-07T11:24:28;24.40;48.30
64226;DHT22;50545;56.064;26.178;2022-08-07T11:27:06;24.10;49.80
64226;DHT22;50545;56.064;26.178;2022-08-07T11:29:48;23.80;51.50
64226;DHT22;50545;56.064;26.178;2022-08-07T11:33:08;23.40;51.30
64226;DHT22;50545;56.064;26.178;2022-08-07T11:43:25;21.80;57.20
64226;DHT22;50545;56.064;26.178;2022-08-07T11:48:53;21.30;59.40
64226;DHT22;50545;56.064;26.178;2022-08-07T11:52:21;21.20;60.10
64226;DHT22;50545;56.064;26.178;2022-08-07T12:16:26;20.70;57.00
64226;DHT22;50545;56.064;26.178;2022-08-07T12:22:50;20.70;58.10
64226;DHT22;50545;56.064;26.178;2022-08-07T12:25:34;20.70;58.20
64226;DHT22;50545;56.064;26.178;2022-08-07T12:29:04;21.10;56.80
64226;DHT22;50545;56.064;26.178;2022-08-07T12:31:48;21.80;56.70
64226;DHT22;50545;56.064;26.178;2022-08-07T12:34:32;22.40;54.40
64226;DHT22;50545;56.064;26.178;2022-08-07T12:37:01;23.10;52.60
64226;DHT22;50545;56.064;26.178;2022-08-07T12:39:44;23.40;50.30
64226;DHT22;50545;56.064;26.178;2022-08-07T12:42:21;23.40;50.40
64226;DHT22;50545;56.064;26.178;2022-08-07T12:44:57;23.20;53.00
64226;DHT22;50545;56.064;26.178;2022-08-07T12:50:37;22.80;53.00
64226;DHT22;50545;56.064;26.178;2022-08-07T12:53:32;22.60;57.20
64226;DHT22;50545;56.064;26.178;2022-08-07T12:56:35;22.40;54.50
64226;DHT22;50545;56.064;26.178;2022-08-07T12:59:04;22.30;56.10
64226;DHT22;50545;56.064;26.178;2022-08-07T13:08:01;23.00;56.30
64226;DHT22;50545;56.064;26.178;2022-08-07T13:11:14;23.60;53.30
64226;DHT22;50545;56.064;26.178;2022-08-07T13:17:34;25.00;52.30
64226;DHT22;50545;56.064;26.178;2022-08-07T13:20:17;25.60;49.20
64226;DHT22;50545;56.064;26.178;2022-08-07T13:23:03;26.00;49.10
64226;DHT22;50545;56.064;26.178;2022-08-07T13:25:58;26.30;48.90
64226;DHT22;50545;56.064;26.178;2022-08-07T13:29:11;26.60;47.10
64226;DHT22;50545;56.064;26.178;2022-08-07T13:34:50;27.00;46.80
64226;DHT22;50545;56.064;26.178;2022-08-07T13:43:14;28.20;44.00
64226;DHT22;50545;56.064;26.178;2022-08-07T13:45:47;28.40;41.20
64226;DHT22;50545;56.064;26.178;2022-08-07T13:48:39;28.20;40.90
64226;DHT22;50545;56.064;26.178;2022-08-07T13:51:28;27.90;43.80
64226;DHT22;50545;56.064;26.178;2022-08-07T13:54:18;27.30;46.60
64226;DHT22;50545;56.064;26.178;2022-08-07T13:56:52;26.60;44.40
64226;DHT22;50545;56.064;26.178;2022-08-07T13:59:27;26.00;46.60
64226;DHT22;50545;56.064;26.178;2022-08-07T14:02:06;25.60;52.40
64226;DHT22;50545;56.064;26.178;2022-08-07T14:04:47;25.70;52.40
64226;DHT22;50545;56.064;26.178;2022-08-07T14:07:25;26.00;46.70
64226;DHT22;50545;56.064;26.178;2022-08-07T14:09:56;26.50;50.40
64226;DHT22;50545;56.064;26.178;2022-08-07T14:12:53;26.90;43.60
64226;DHT22;50545;56.064;26.178;2022-08-07T14:15:41;27.30;40.70
64226;DHT22;50545;56.064;26.178;2022-08-07T14:24:03;28.40;40.00
64226;DHT22;50545;56.064;26.178;2022-08-07T14:29:08;29.00;42.40
64226;DHT22;50545;56.064;26.178;2022-08-07T14:32:00;29.20;41.90
64226;DHT22;50545;56.064;26.178;2022-08-07T14:34:30;29.50;40.00
64226;DHT22;50545;56.064;26.178;2022-08-07T14:37:00;29.70;39.00
64226;DHT22;50545;56.064;26.178;2022-08-07T14:39:30;29.90;42.30
64226;DHT22;50545;56.064;26.178;2022-08-07T14:42:25;30.10;42.20
64226;DHT22;50545;56.064;26.178;2022-08-07T14:45:01;30.30;38.60
64226;DHT22;50545;56.064;26.178;2022-08-07T14:47:49;30.40;38.40
64226;DHT22;50545;56.064;26.178;2022-08-07T14:50:25;30.30;34.20
64226;DHT22;50545;56.064;26.178;2022-08-07T14:52:59;30.00;39.30
64226;DHT22;50545;56.064;26.178;2022-08-07T14:55:48;29.70;40.30
64226;DHT22;50545;56.064;26.178;2022-08-07T14:58:31;29.60;39.20
64226;DHT22;50545;56.064;26.178;2022-08-07T15:01:00;29.60;36.70
64226;DHT22;50545;56.064;26.178;2022-08-07T15:03:49;29.50;38.00
64226;DHT22;50545;56.064;26.178;2022-08-07T15:06:22;29.30;36.40
64226;DHT22;50545;56.064;26.178;2022-08-07T15:08:51;29.30;39.30
64226;DHT22;50545;56.064;26.178;2022-08-07T15:11:23;29.50;38.60
64226;DHT22;50545;56.064;26.178;2022-08-07T15:14:16;29.70;35.50
64226;DHT22;50545;56.064;26.178;2022-08-07T15:17:10;30.00;38.30
64226;DHT22;50545;56.064;26.178;2022-08-07T15:19:56;30.00;34.50
64226;DHT22;50545;56.064;26.178;2022-08-07T15:22:50;30.00;35.40
64226;DHT22;50545;56.064;26.178;2022-08-07T15:25:25;30.20;35.80
64226;DHT22;50545;56.064;26.178;2022-08-07T15:28:05;30.40;37.70
64226;DHT22;50545;56.064;26.178;2022-08-07T15:31:00;30.60;34.90
64226;DHT22;50545;56.064;26.178;2022-08-07T15:33:41;30.80;35.10
64226;DHT22;50545;56.064;26.178;2022-08-07T15:36:09;30.50;33.10
64226;DHT22;50545;56.064;26.178;2022-08-07T15:38:39;29.60;35.80
64226;DHT22;50545;56.064;26.178;2022-08-07T15:41:28;29.00;37.60
64226;DHT22;50545;56.064;26.178;2022-08-07T15:44:17;28.40;40.90
64226;DHT22;50545;56.064;26.178;2022-08-07T15:46:45;27.90;42.90
64226;DHT22;50545;56.064;26.178;2022-08-07T15:49:37;27.30;48.00
64226;DHT22;50545;56.064;26.178;2022-08-07T15:52:27;26.80;47.30
64226;DHT22;50545;56.064;26.178;2022-08-07T15:55:03;26.30;50.20
64226;DHT22;50545;56.064;26.178;2022-08-07T15:57:38;26.10;49.10
64226;DHT22;50545;56.064;26.178;2022-08-07T16:00:20;26.20;45.30
64226;DHT22;50545;56.064;26.178;2022-08-07T16:03:19;26.70;46.80
64226;DHT22;50545;56.064;26.178;2022-08-07T16:06:07;27.50;44.80
64226;DHT22;50545;56.064;26.178;2022-08-07T16:08:40;28.30;43.00
64226;DHT22;50545;56.064;26.178;2022-08-07T16:14:15;29.50;41.80
64226;DHT22;50545;56.064;26.178;2022-08-07T16:32:06;30.20;37.20
64226;DHT22;50545;56.064;26.178;2022-08-07T16:44:42;29.00;43.40
64226;DHT22;50545;56.064;26.178;2022-08-07T16:47:43;29.00;45.00
64226;DHT22;50545;56.064;26.178;2022-08-07T16:56:49;28.70;42.90
64226;DHT22;50545;56.064;26.178;2022-08-07T17:00:04;28.40;45.10
64226;DHT22;50545;56.064;26.178;2022-08-07T17:05:31;27.60;46.80
64226;DHT22;50545;56.064;26.178;2022-08-07T17:08:57;27.30;45.50
64226;DHT22;50545;56.064;26.178;2022-08-07T17:15:15;26.10;48.80
64226;DHT22;50545;56.064;26.178;2022-08-07T17:20:35;24.90;50.00
64226;DHT22;50545;56.064;26.178;2022-08-07T17:31:39;22.90;56.20
64226;DHT22;50545;56.064;26.178;2022-08-07T17:34:35;22.50;59.40
64226;DHT22;50545;56.064;26.178;2022-08-07T17:37:33;22.10;60.30
64226;DHT22;50545;56.064;26.178;2022-08-07T17:40:33;21.70;60.30
64226;DHT22;50545;56.064;26.178;2022-08-07T17:43:11;21.30;62.10
64226;DHT22;50545;56.064;26.178;2022-08-07T17:45:55;21.00;63.60
64226;DHT22;50545;56.064;26.178;2022-08-07T17:48:31;20.70;64.10
64226;DHT22;50545;56.064;26.178;2022-08-07T17:51:19;20.50;65.30
64226;DHT22;50545;56.064;26.178;2022-08-07T17:53:59;20.30;66.30
64226;DHT22;50545;56.064;26.178;2022-08-07T17:56:37;20.00;67.70
64226;DHT22;50545;56.064;26.178;2022-08-07T18:02:19;19.60;70.60
64226;DHT22;50545;56.064;26.178;2022-08-07T18:05:03;19.40;71.50
64226;DHT22;50545;56.064;26.178;2022-08-07T18:14:15;18.80;73.80
64226;DHT22;50545;56.064;26.178;2022-08-07T18:20:32;18.40;75.60
64226;DHT22;50545;56.064;26.178;2022-08-07T18:23:52;18.20;77.50
64226;DHT22;50545;56.064;26.178;2022-08-07T18:29:22;17.80;80.00
64226;DHT22;50545;56.064;26.178;2022-08-07T18:32:30;17.60;82.20
64226;DHT22;50545;56.064;26.178;2022-08-07T18:38:25;17.30;86.40
64226;DHT22;50545;56.064;26.178;2022-08-07T18:41:49;17.10;87.50
64226;DHT22;50545;56.064;26.178;2022-08-07T18:44:47;17.00;89.20
64226;DHT22;50545;56.064;26.178;2022-08-07T18:47:56;16.80;89.80
64226;DHT22;50545;56.064;26.178;2022-08-07T18:53:37;16.50;94.50
64226;DHT22;50545;56.064;26.178;2022-08-07T18:59:51;16.20;98.30
64226;DHT22;50545;56.064;26.178;2022-08-07T19:02:48;16.00;99.10
64226;DHT22;50545;56.064;26.178;2022-08-07T19:08:24;15.70;99.90
64226;DHT22;50545;56.064;26.178;2022-08-07T19:17:01;15.40;99.90
64226;DHT22;50545;56.064;26.178;2022-08-07T19:19:36;15.30;99.90
64226;DHT22;50545;56.064;26.178;2022-08-07T19:22:22;15.20;99.90
64226;DHT22;50545;56.064;26.178;2022-08-07T19:24:58;15.10;99.90
64226;DHT22;50545;56.064;26.178;2022-08-07T19:27:36;15.10;99.90
64226;DHT22;50545;56.064;26.178;2022-08-07T19:30:31;15.00;99.90
64226;DHT22;50545;56.064;26.178;2022-08-07T19:33:21;14.90;99.90
64226;DHT22;50545;56.064;26.178;2022-08-07T19:36:02;14.80;99.90
64226;DHT22;50545;56.064;26.178;2022-08-07T19:38:33;14.70;99.90
64226;DHT22;50545;56.064;26.178;2022-08-07T19:41:21;14.70;99.90
64226;DHT22;50545;56.064;26.178;2022-08-07T19:44:14;14.70;99.90
64226;DHT22;50545;56.064;26.178;2022-08-07T19:46:51;14.60;99.90
64226;DHT22;50545;56.064;26.178;2022-08-07T19:49:25;14.60;99.90
64226;DHT22;50545;56.064;26.178;2022-08-07T19:52:16;14.60;99.90
64226;DHT22;50545;56.064;26.178;2022-08-07T19:54:48;14.50;99.90
64226;DHT22;50545;56.064;26.178;2022-08-07T19:57:37;14.50;99.90
64226;DHT22;50545;56.064;26.178;2022-08-07T20:00:26;14.50;99.90
64226;DHT22;50545;56.064;26.178;2022-08-07T20:03:14;14.40;99.90
64226;DHT22;50545;56.064;26.178;2022-08-07T20:06:03;14.40;99.90
64226;DHT22;50545;56.064;26.178;2022-08-07T20:08:35;14.30;99.90
64226;DHT22;50545;56.064;26.178;2022-08-07T20:11:11;14.30;99.90
64226;DHT22;50545;56.064;26.178;2022-08-07T20:13:52;14.30;99.90
64226;DHT22;50545;56.064;26.178;2022-08-07T20:16:26;14.20;99.90
64226;DHT22;50545;56.064;26.178;2022-08-07T20:19:05;14.20;99.90
64226;DHT22;50545;56.064;26.178;2022-08-07T20:21:38;14.20;99.90
64226;DHT22;50545;56.064;26.178;2022-08-07T20:24:25;14.10;99.90
64226;DHT22;50545;56.064;26.178;2022-08-07T20:26:57;14.00;99.90
64226;DHT22;50545;56.064;26.178;2022-08-07T20:29:34;14.00;99.90
64226;DHT22;50545;56.064;26.178;2022-08-07T20:35:16;13.90;99.90
64226;DHT22;50545;56.064;26.178;2022-08-07T20:37:53;13.90;99.90
64226;DHT22;50545;56.064;26.178;2022-08-07T20:40:28;13.80;99.90
64226;DHT22;50545;56.064;26.178;2022-08-07T20:43:02;13.80;99.90
64226;DHT22;50545;56.064;26.178;2022-08-07T20:45:42;13.70;99.90
64226;DHT22;50545;56.064;26.178;2022-08-07T20:48:32;13.70;99.90
64226;DHT22;50545;56.064;26.178;2022-08-07T20:51:03;13.60;99.90
64226;DHT22;50545;56.064;26.178;2022-08-07T20:53:37;13.60;99.90
64226;DHT22;50545;56.064;26.178;2022-08-07T20:56:27;13.50;99.90
64226;DHT22;50545;56.064;26.178;2022-08-07T20:58:57;13.40;99.90
64226;DHT22;50545;56.064;26.178;2022-08-07T21:01:28;13.40;99.90
64226;DHT22;50545;56.064;26.178;2022-08-07T21:04:15;13.40;99.90
64226;DHT22;50545;56.064;26.178;2022-08-07T21:06:53;13.30;99.90
64226;DHT22;50545;56.064;26.178;2022-08-07T21:09:35;13.30;99.90